createdAt,value
2018-01-23T00:01:11.843Z,23.67
2018-01-23T00:03:41.312Z,20.80
2018-01-23T00:06:10.828Z,21.43
2018-01-23T00:08:40.295Z,24.07
2018-01-23T00:11:09.908Z,23.77
2018-01-23T00:13:38.940Z,18.57
2018-01-23T00:16:08.327Z,17.50
2018-01-23T00:18:38.066Z,25.23
2018-01-23T00:21:07.102Z,14.47
2018-01-23T00:23:36.491Z,25.67
2018-01-23T00:26:04.739Z,26.03
2018-01-23T00:28:33.018Z,26.10
2018-01-23T00:31:01.266Z,22.50
2018-01-23T00:33:30.839Z,24.77
2018-01-23T00:36:00.536Z,25.00
2018-01-23T00:38:29.539Z,24.60
2018-01-23T00:40:57.763Z,24.47
2018-01-23T00:43:26.048Z,20.57
2018-01-23T00:45:55.630Z,29.60
2018-01-23T00:48:25.095Z,28.10
2018-01-23T00:53:29.699Z,25.70
2018-01-23T00:55:59.725Z,20.87
2018-01-23T00:58:28.593Z,23.87
2018-01-23T01:00:57.951Z,18.43
2018-01-23T01:03:26.230Z,26.73
2018-01-23T01:05:54.474Z,21.73
2018-01-23T01:08:22.719Z,24.40
2018-01-23T01:10:52.502Z,24.00
2018-01-23T01:13:20.740Z,23.23
2018-01-23T01:15:48.994Z,26.23
2018-01-23T01:18:17.702Z,25.23
2018-01-23T01:20:46.136Z,26.30
2018-01-23T01:23:15.894Z,25.80
2018-01-23T01:25:45.531Z,22.60
2018-01-23T01:28:15.009Z,33.30
2018-01-23T01:30:43.508Z,20.93
2018-01-23T01:33:12.554Z,27.67
2018-01-23T01:35:41.543Z,26.93
2018-01-23T01:38:10.020Z,25.80
2018-01-23T01:40:38.283Z,34.20
2018-01-23T01:43:06.513Z,23.53
2018-01-23T01:45:34.751Z,23.27
2018-01-23T01:48:04.186Z,25.93
2018-01-23T01:50:33.781Z,26.13
2018-01-23T01:53:03.030Z,30.50
2018-01-23T01:55:32.264Z,25.00
2018-01-23T01:58:00.910Z,24.70
2018-01-23T02:00:30.492Z,21.60
2018-01-23T02:02:59.434Z,23.43
2018-01-23T02:05:29.014Z,30.67
2018-01-23T02:07:57.892Z,22.13
2018-01-23T02:10:27.292Z,26.10
2018-01-23T02:12:56.287Z,22.63
2018-01-23T02:15:24.520Z,27.30
2018-01-23T02:17:53.548Z,24.40
2018-01-23T02:20:23.144Z,22.43
2018-01-23T02:22:52.602Z,20.47
2018-01-23T02:25:20.768Z,32.37
2018-01-23T02:27:50.374Z,22.67
2018-01-23T02:30:18.888Z,26.63
2018-01-23T02:32:47.195Z,27.67
2018-01-23T02:35:15.458Z,26.70
2018-01-23T02:37:44.474Z,26.00
2018-01-23T02:40:13.514Z,22.37
2018-01-23T02:42:43.266Z,28.43
2018-01-23T02:45:11.512Z,29.07
2018-01-23T02:47:41.131Z,25.23
2018-01-23T02:50:09.635Z,25.30
2018-01-23T02:52:39.216Z,27.67
2018-01-23T02:55:08.734Z,31.83
2018-01-23T02:57:37.240Z,42.13
2018-01-23T03:00:05.574Z,22.10
2018-01-23T03:02:33.887Z,28.43
2018-01-23T03:05:02.120Z,28.27
2018-01-23T03:07:30.360Z,24.67
2018-01-23T03:09:58.647Z,27.87
2018-01-23T03:12:26.895Z,31.77
2018-01-23T03:14:56.274Z,28.63
2018-01-23T03:17:24.928Z,30.50
2018-01-23T03:19:53.178Z,24.53
2018-01-23T03:22:22.912Z,27.70
2018-01-23T03:24:52.536Z,22.17
2018-01-23T03:27:21.794Z,22.53
2018-01-23T03:29:51.430Z,26.20
2018-01-23T03:32:20.722Z,32.03
2018-01-23T03:34:50.321Z,24.83
2018-01-23T03:37:19.199Z,19.60
2018-01-23T03:39:47.592Z,21.37
2018-01-23T03:42:17.342Z,26.67
2018-01-23T03:44:45.605Z,17.60
2018-01-23T03:47:13.892Z,20.93
2018-01-23T03:49:42.115Z,23.17
2018-01-23T03:52:11.851Z,25.00
2018-01-23T03:54:40.134Z,25.23
2018-01-23T03:57:08.384Z,23.80
2018-01-23T03:59:36.607Z,21.20
2018-01-23T04:02:04.907Z,19.67
2018-01-23T04:04:33.136Z,19.50
2018-01-23T04:07:02.877Z,21.10
2018-01-23T04:09:31.155Z,22.47
2018-01-23T04:11:59.790Z,20.00
2018-01-23T04:14:29.378Z,24.03
2018-01-23T04:16:57.936Z,24.30
2018-01-23T04:19:27.308Z,20.00
2018-01-23T04:21:56.883Z,26.13
2018-01-23T04:24:26.438Z,18.63
2018-01-23T04:26:55.272Z,18.77
2018-01-23T04:29:24.268Z,24.10
2018-01-23T04:31:52.542Z,20.93
2018-01-23T04:34:21.552Z,18.83
2018-01-23T04:36:49.784Z,24.23
2018-01-23T04:39:18.455Z,31.70
2018-01-23T04:41:46.726Z,18.43
2018-01-23T04:44:16.475Z,22.37
2018-01-23T04:46:46.162Z,22.57
2018-01-23T04:49:15.044Z,23.43
2018-01-23T04:51:44.637Z,18.97
2018-01-23T04:54:13.547Z,26.27
2018-01-23T04:56:41.779Z,21.97
2018-01-23T04:59:10.784Z,19.60
2018-01-23T05:01:40.273Z,21.17
2018-01-23T05:04:08.865Z,20.60
2018-01-23T05:06:37.100Z,22.50
2018-01-23T05:09:05.376Z,19.00
2018-01-23T05:11:33.640Z,34.23
2018-01-23T05:14:13.909Z,27.83
2018-01-23T05:16:43.711Z,22.00
2018-01-23T05:19:11.834Z,23.70
2018-01-23T05:21:41.451Z,21.67
2018-01-23T05:24:10.328Z,25.07
2018-01-23T05:26:38.583Z,21.67
2018-01-23T05:29:08.220Z,26.37
2018-01-23T05:31:36.739Z,18.80
2018-01-23T05:34:05.369Z,29.43
2018-01-23T05:36:34.450Z,20.60
2018-01-23T05:39:04.032Z,20.03
2018-01-23T05:41:32.536Z,22.20
2018-01-23T05:44:00.821Z,19.13
2018-01-23T05:46:30.391Z,22.70
2018-01-23T05:48:59.865Z,25.13
2018-01-23T05:51:29.164Z,22.63
2018-01-23T05:53:57.396Z,31.17
2018-01-23T05:56:27.136Z,23.93
2018-01-23T05:58:55.405Z,25.87
2018-01-23T06:01:23.647Z,29.70
2018-01-23T06:03:51.897Z,20.10
2018-01-23T06:06:20.222Z,23.83
2018-01-23T06:08:48.476Z,25.07
2018-01-23T06:11:16.711Z,19.33
2018-01-23T06:13:44.990Z,19.70
2018-01-23T06:16:13.235Z,15.33
2018-01-23T06:18:42.822Z,16.27
2018-01-23T06:21:12.494Z,25.27
2018-01-23T06:23:42.167Z,24.10
2018-01-23T06:26:10.794Z,24.53
2018-01-23T06:28:39.068Z,25.47
2018-01-23T06:31:07.308Z,27.83
2018-01-23T06:33:35.539Z,21.97
2018-01-23T06:36:04.944Z,20.27
2018-01-23T06:38:33.189Z,16.90
2018-01-23T06:41:02.184Z,25.37
2018-01-23T06:43:32.146Z,21.63
2018-01-23T06:46:01.894Z,18.73
2018-01-23T06:48:30.519Z,20.23
2018-01-23T06:50:58.790Z,25.33
2018-01-23T06:53:27.783Z,25.40
2018-01-23T06:55:57.368Z,22.43
2018-01-23T06:58:27.388Z,17.43
2018-01-23T07:00:56.027Z,24.83
2018-01-23T07:03:24.272Z,25.73
2018-01-23T07:05:53.912Z,18.83
2018-01-23T07:08:22.480Z,20.10
2018-01-23T07:10:50.704Z,16.87
2018-01-23T07:13:18.988Z,14.97
2018-01-23T07:15:47.287Z,16.70
2018-01-23T07:18:15.526Z,22.70
2018-01-23T07:20:44.928Z,19.50
2018-01-23T07:23:13.175Z,19.13
2018-01-23T07:25:42.168Z,17.30
2018-01-23T07:28:10.451Z,26.23
2018-01-23T07:30:38.696Z,23.00
2018-01-23T07:33:08.344Z,22.07
2018-01-23T07:35:37.996Z,22.73
2018-01-23T07:38:07.279Z,18.77
2018-01-23T07:40:49.445Z,16.27
2018-01-23T07:43:17.998Z,18.83
2018-01-23T07:45:46.228Z,23.90
2018-01-23T07:48:14.526Z,22.67
2018-01-23T07:50:44.267Z,20.37
2018-01-23T07:53:12.504Z,24.73
2018-01-23T07:55:40.786Z,29.53
2018-01-23T07:58:09.028Z,19.40
2018-01-23T08:00:37.283Z,23.27
2018-01-23T08:03:05.544Z,15.97
2018-01-23T08:05:34.176Z,22.37
2018-01-23T08:08:03.559Z,22.43
2018-01-23T08:10:31.852Z,14.40
2018-01-23T08:13:00.092Z,16.80
2018-01-23T08:15:28.324Z,23.93
2018-01-23T08:17:57.943Z,17.70
2018-01-23T08:20:27.399Z,22.43
2018-01-23T08:22:55.922Z,20.37
2018-01-23T08:25:24.184Z,24.63
2018-01-23T08:27:53.203Z,27.47
2018-01-23T08:30:22.226Z,24.87
2018-01-23T08:32:51.872Z,16.20
2018-01-23T08:35:20.369Z,24.40
2018-01-23T08:37:48.615Z,20.83
2018-01-23T08:40:18.127Z,16.17
2018-01-23T08:42:47.543Z,19.63
2018-01-23T08:45:15.777Z,16.17
2018-01-23T08:47:45.395Z,13.03
2018-01-23T08:50:13.518Z,18.00
2018-01-23T08:52:41.743Z,22.13
2018-01-23T08:55:10.016Z,23.07
2018-01-23T08:57:38.277Z,24.83
2018-01-23T09:00:07.678Z,20.53
2018-01-23T09:02:36.725Z,12.97
2018-01-23T09:05:04.953Z,20.83
2018-01-23T09:07:35.900Z,17.83
2018-01-23T09:10:04.174Z,17.67
2018-01-23T09:12:33.760Z,28.13
2018-01-23T09:15:02.297Z,15.30
2018-01-23T09:17:31.879Z,23.33
2018-01-23T09:20:00.380Z,13.53
2018-01-23T09:22:28.715Z,18.17
2018-01-23T09:24:56.962Z,17.63
2018-01-23T09:27:26.539Z,18.90
2018-01-23T09:29:55.572Z,16.03
2018-01-23T09:32:23.838Z,11.43
2018-01-23T09:34:53.575Z,11.53
2018-01-23T09:37:21.852Z,21.40
2018-01-23T09:39:50.096Z,13.83
2018-01-23T09:42:18.354Z,15.57
2018-01-23T09:44:46.627Z,15.30
2018-01-23T09:47:14.852Z,13.87
2018-01-23T09:49:44.428Z,15.30
2018-01-23T09:52:14.080Z,9.97
2018-01-23T09:54:42.325Z,15.93
2018-01-23T09:57:10.562Z,13.67
2018-01-23T09:59:40.342Z,14.50
2018-01-23T10:02:08.591Z,20.27
2018-01-23T10:04:36.824Z,11.33
2018-01-23T10:07:05.080Z,17.23
2018-01-23T10:09:34.816Z,15.70
2018-01-23T10:12:03.044Z,15.30
2018-01-23T10:14:31.308Z,12.53
2018-01-23T10:16:59.945Z,14.77
2018-01-23T10:19:29.531Z,9.87
2018-01-23T10:21:58.061Z,13.67
2018-01-23T10:24:26.295Z,11.10
2018-01-23T10:26:54.530Z,9.50
2018-01-23T10:29:24.165Z,13.93
2018-01-23T10:31:53.812Z,15.37
2018-01-23T10:34:22.032Z,13.80
2018-01-23T10:36:50.364Z,10.00
2018-01-23T10:39:18.591Z,13.03
2018-01-23T10:41:46.846Z,11.00
2018-01-23T10:44:16.241Z,16.93
2018-01-23T10:46:45.232Z,6.50
2018-01-23T10:49:14.808Z,10.20
2018-01-23T10:51:43.343Z,15.33
2018-01-23T10:54:11.996Z,16.77
2018-01-23T10:56:41.712Z,10.30
2018-01-23T10:59:09.971Z,20.47
2018-01-23T11:01:40.322Z,13.20
2018-01-23T11:04:09.970Z,6.70
2018-01-23T11:06:38.281Z,8.40
2018-01-23T11:09:07.333Z,9.53
2018-01-23T11:11:35.626Z,8.50
2018-01-23T11:14:05.449Z,15.17
2018-01-23T11:16:35.056Z,5.90
2018-01-23T11:19:03.978Z,7.83
2018-01-23T11:21:32.204Z,15.53
2018-01-23T11:24:01.976Z,7.17
2018-01-23T11:26:30.204Z,5.27
2018-01-23T11:28:58.447Z,10.33
2018-01-23T11:31:26.701Z,7.13
2018-01-23T11:33:56.284Z,6.10
2018-01-23T11:36:24.784Z,7.30
2018-01-23T11:38:53.063Z,8.30
2018-01-23T11:41:21.684Z,5.63
2018-01-23T11:43:49.922Z,6.83
2018-01-23T11:46:19.548Z,12.60
2018-01-23T11:48:48.087Z,8.30
2018-01-23T11:51:17.678Z,4.37
2018-01-23T11:53:45.824Z,10.23
2018-01-23T11:56:15.489Z,6.53
2018-01-23T11:58:44.967Z,7.80
2018-01-23T12:01:13.904Z,12.90
2018-01-23T12:03:42.154Z,6.20
2018-01-23T12:06:11.732Z,7.80
2018-01-23T12:08:39.859Z,6.47
2018-01-23T12:11:08.088Z,14.57
2018-01-23T12:13:36.321Z,7.20
2018-01-23T12:16:05.360Z,4.70
2018-01-23T12:18:34.961Z,5.60
2018-01-23T12:21:03.068Z,11.73
2018-01-23T12:23:32.679Z,11.53
2018-01-23T12:26:01.558Z,7.37
2018-01-23T12:28:29.786Z,9.97
2018-01-23T12:30:58.054Z,7.83
2018-01-23T12:33:27.048Z,12.27
2018-01-23T12:35:55.295Z,7.33
2018-01-23T12:38:23.572Z,7.70
2018-01-23T12:40:51.808Z,9.63
2018-01-23T12:43:20.064Z,7.90
2018-01-23T12:45:49.852Z,6.40
2018-01-23T12:48:18.126Z,5.97
2018-01-23T12:50:47.713Z,13.53
2018-01-23T12:53:16.287Z,6.00
2018-01-23T12:55:45.872Z,6.93
2018-01-23T12:58:14.767Z,10.93
2018-01-23T13:00:43.650Z,9.47
2018-01-23T13:03:13.397Z,6.73
2018-01-23T13:05:41.618Z,8.57
2018-01-23T13:08:11.219Z,7.00
2018-01-23T13:10:39.724Z,5.70
2018-01-23T13:13:07.952Z,7.17
2018-01-23T13:15:36.984Z,6.93
2018-01-23T13:18:05.207Z,7.37
2018-01-23T13:20:34.808Z,13.93
2018-01-23T13:23:03.356Z,7.20
2018-01-23T13:25:31.575Z,4.30
2018-01-23T13:27:59.812Z,13.17
2018-01-23T13:30:28.103Z,6.07
2018-01-23T13:32:56.328Z,9.87
2018-01-23T13:35:26.070Z,5.63
2018-01-23T13:37:54.649Z,10.03
2018-01-23T13:40:22.920Z,9.07
2018-01-23T13:42:51.175Z,5.20
2018-01-23T13:45:19.521Z,6.53
2018-01-23T13:47:49.116Z,9.13
2018-01-23T13:50:18.588Z,5.67
2018-01-23T13:52:47.558Z,6.50
2018-01-23T13:55:16.973Z,8.93
2018-01-23T13:57:47.176Z,10.90
2018-01-23T14:01:42.426Z,9.17
2018-01-23T14:04:11.092Z,6.07
2018-01-23T14:06:40.304Z,8.83
2018-01-23T14:09:09.652Z,5.53
2018-01-23T14:11:37.916Z,9.13
2018-01-23T14:14:06.140Z,6.00
2018-01-23T14:16:34.376Z,5.90
2018-01-23T14:19:04.149Z,6.53
2018-01-23T14:21:32.392Z,5.83
2018-01-23T14:24:00.616Z,9.47
2018-01-23T14:26:30.214Z,4.10
2018-01-23T14:28:59.091Z,3.70
2018-01-23T14:31:28.662Z,6.20
2018-01-23T14:33:57.576Z,4.13
2018-01-23T14:36:27.154Z,6.80
2018-01-23T14:38:56.752Z,5.50
2018-01-23T14:41:25.032Z,8.60
2018-01-23T14:43:53.260Z,10.30
2018-01-23T14:46:21.483Z,5.57
2018-01-23T14:48:51.274Z,5.57
2018-01-23T14:51:20.871Z,6.50
2018-01-23T14:53:49.379Z,5.60
2018-01-23T14:56:17.660Z,5.03
2018-01-23T14:58:46.654Z,7.40
2018-01-23T15:01:16.032Z,6.57
2018-01-23T15:03:44.301Z,7.10
2018-01-23T15:06:13.907Z,7.40
2018-01-23T15:08:43.413Z,14.17
2018-01-23T15:11:13.071Z,7.03
2018-01-23T15:13:41.299Z,12.53
2018-01-23T15:16:10.880Z,12.57
2018-01-23T15:18:40.524Z,8.20
2018-01-23T15:21:08.753Z,6.67
2018-01-23T15:23:36.972Z,7.10
2018-01-23T15:26:06.571Z,6.50
2018-01-23T15:28:36.867Z,7.40
2018-01-23T15:31:04.989Z,15.47
2018-01-23T15:33:33.252Z,5.70
2018-01-23T15:36:01.486Z,7.90
2018-01-23T15:38:30.481Z,7.30
2018-01-23T15:40:59.863Z,7.10
2018-01-23T15:43:28.091Z,5.53
2018-01-23T15:45:56.320Z,41.23
2018-01-23T15:48:25.938Z,7.27
2018-01-23T15:50:55.383Z,7.23
2018-01-23T15:53:24.832Z,5.10
2018-01-23T15:55:52.959Z,5.47
2018-01-23T15:58:22.320Z,7.67
2018-01-23T16:00:50.555Z,3.20
2018-01-23T16:03:20.175Z,3.73
2018-01-23T16:05:48.687Z,3.80
2018-01-23T16:08:16.916Z,5.70
2018-01-23T16:10:45.179Z,7.87
2018-01-23T16:13:13.412Z,7.37
2018-01-23T16:15:43.135Z,9.43
2018-01-23T16:18:12.751Z,5.17
2018-01-23T16:20:41.248Z,8.30
2018-01-23T16:23:09.473Z,5.97
2018-01-23T16:25:37.768Z,3.10
2018-01-23T16:28:06.014Z,4.03
2018-01-23T16:30:34.258Z,3.40
2018-01-23T16:33:02.524Z,3.20
2018-01-23T16:35:32.079Z,6.00
2018-01-23T16:38:02.199Z,7.03
2018-01-23T16:40:30.328Z,9.67
2018-01-23T16:42:59.894Z,5.80
2018-01-23T16:45:29.400Z,15.50
2018-01-23T16:47:58.847Z,8.00
2018-01-23T16:50:28.295Z,7.53
2018-01-23T16:52:57.783Z,7.30
2018-01-23T16:55:25.891Z,10.53
2018-01-23T16:57:54.899Z,10.37
2018-01-23T17:00:23.554Z,6.00
2018-01-23T17:02:51.788Z,6.07
2018-01-23T17:07:20.260Z,11.93
2018-01-23T17:09:48.491Z,7.77
2018-01-23T17:12:16.712Z,7.33
2018-01-23T17:14:46.495Z,6.27
2018-01-23T17:17:15.888Z,5.47
2018-01-23T17:19:44.109Z,6.77
2018-01-23T17:22:13.142Z,7.20
2018-01-23T17:24:42.729Z,3.33
2018-01-23T17:27:10.836Z,5.70
2018-01-23T17:29:40.460Z,3.03
2018-01-23T17:32:08.555Z,4.57
2018-01-23T17:34:36.812Z,3.87
2018-01-23T17:37:05.112Z,13.63
2018-01-23T17:39:33.392Z,4.50
2018-01-23T17:42:01.618Z,7.40
2018-01-23T17:44:29.940Z,15.77
2018-01-23T17:46:58.168Z,3.77
2018-01-23T17:49:26.392Z,7.53
2018-01-23T17:51:54.657Z,3.23
2018-01-23T17:54:24.240Z,3.57
2018-01-23T17:56:53.686Z,8.07
2018-01-23T17:59:21.823Z,4.43
2018-01-23T18:01:50.051Z,3.07
2018-01-23T18:04:18.300Z,4.93
2018-01-23T18:06:47.337Z,9.17
2018-01-23T18:09:16.925Z,3.50
2018-01-23T18:11:46.547Z,4.60
2018-01-23T18:14:14.814Z,4.47
2018-01-23T18:16:43.484Z,5.13
2018-01-23T18:19:11.749Z,7.10
2018-01-23T18:21:40.756Z,6.30
2018-01-23T18:24:09.739Z,4.10
2018-01-23T18:26:37.960Z,5.03
2018-01-23T18:29:07.384Z,7.00
2018-01-23T18:31:35.637Z,6.67
2018-01-23T18:34:03.966Z,4.80
2018-01-23T18:36:32.255Z,5.90
2018-01-23T18:39:00.476Z,4.50
2018-01-23T18:41:30.058Z,2.43
2018-01-23T18:43:58.975Z,4.10
2018-01-23T18:46:27.960Z,7.57
2018-01-23T18:48:56.175Z,5.33
2018-01-23T18:51:25.778Z,5.57
2018-01-23T18:53:55.068Z,5.57
2018-01-23T18:56:24.411Z,10.10
2018-01-23T18:58:52.722Z,3.77
2018-01-23T19:01:21.035Z,8.80
2018-01-23T19:03:50.029Z,5.83
2018-01-23T19:06:19.068Z,11.63
2018-01-23T19:08:47.303Z,7.13
2018-01-23T19:11:15.565Z,7.43
2018-01-23T19:13:43.891Z,3.30
2018-01-23T19:16:12.491Z,6.57
2018-01-23T19:18:42.228Z,3.60
2018-01-23T19:21:10.526Z,5.93
2018-01-23T19:23:38.792Z,5.20
2018-01-23T19:26:08.403Z,5.83
2018-01-23T19:28:38.028Z,3.07
2018-01-23T19:31:06.282Z,6.27
2018-01-23T19:33:34.589Z,4.63
2018-01-23T19:36:04.293Z,4.67
2018-01-23T19:38:32.423Z,3.87
2018-01-23T19:41:02.031Z,6.47
2018-01-23T19:43:31.546Z,4.00
2018-01-23T19:46:00.391Z,5.30
2018-01-23T19:48:29.831Z,3.60
2018-01-23T19:50:59.274Z,4.40
2018-01-23T19:53:27.873Z,4.87
2018-01-23T19:55:57.604Z,4.00
2018-01-23T19:58:27.258Z,2.50
2018-01-23T20:00:56.122Z,4.57
2018-01-23T20:03:24.386Z,6.10
2018-01-23T20:05:54.031Z,3.00
2018-01-23T20:08:22.559Z,4.90
2018-01-23T20:10:51.535Z,4.13
2018-01-23T20:13:19.863Z,4.70
2018-01-23T20:15:48.121Z,6.90
2018-01-23T20:18:16.367Z,3.13
2018-01-23T20:20:44.624Z,5.70
2018-01-23T20:23:12.892Z,9.73
2018-01-23T20:25:41.152Z,4.97
2018-01-23T20:28:10.590Z,4.90
2018-01-23T20:30:39.629Z,5.63
2018-01-23T20:33:09.195Z,4.10
2018-01-23T20:35:37.800Z,4.10
2018-01-23T20:38:07.391Z,4.77
2018-01-23T20:40:35.568Z,4.17
2018-01-23T20:43:03.887Z,2.70
2018-01-23T20:45:32.137Z,3.00
2018-01-23T20:48:01.687Z,7.10
2018-01-23T20:50:31.229Z,4.03
2018-01-23T20:52:59.713Z,4.27
2018-01-23T20:55:27.931Z,2.97
2018-01-23T20:57:56.263Z,4.20
2018-01-23T21:00:24.523Z,7.20
2018-01-23T21:02:52.742Z,4.30
2018-01-23T21:05:22.398Z,3.20
2018-01-23T21:07:51.883Z,3.47
2018-01-23T21:10:21.139Z,5.47
2018-01-23T21:12:49.477Z,5.10
2018-01-23T21:15:18.907Z,4.13
2018-01-23T21:17:47.199Z,3.87
2018-01-23T21:20:15.902Z,3.43
2018-01-23T21:22:45.643Z,4.07
2018-01-23T21:25:13.915Z,4.80
2018-01-23T21:27:42.231Z,3.63
2018-01-23T21:30:11.853Z,4.23
2018-01-23T21:32:41.454Z,3.30
2018-01-23T21:35:11.094Z,4.90
2018-01-23T21:37:39.951Z,3.50
2018-01-23T21:40:08.243Z,4.83
2018-01-23T21:42:36.551Z,3.40
2018-01-23T21:45:05.907Z,3.30
2018-01-23T21:47:34.201Z,5.53
2018-01-23T21:50:03.232Z,3.17
2018-01-23T21:52:32.643Z,3.77
2018-01-23T21:55:00.856Z,3.27
2018-01-23T21:57:30.484Z,5.50
2018-01-23T21:59:59.403Z,3.40
2018-01-23T22:02:28.958Z,2.83
2018-01-23T22:04:57.504Z,3.30
2018-01-23T22:07:27.071Z,3.47
2018-01-23T22:09:55.944Z,3.43
2018-01-23T22:12:25.791Z,13.23
2018-01-23T22:14:54.279Z,14.03
2018-01-23T22:17:23.314Z,2.93
2018-01-23T22:19:51.576Z,2.60
2018-01-23T22:22:21.202Z,2.50
2018-01-23T22:24:49.697Z,2.33
2018-01-23T22:27:19.299Z,3.27
2018-01-23T22:29:48.763Z,2.10
2018-01-23T22:32:18.407Z,2.90
2018-01-23T22:34:46.802Z,3.10
2018-01-23T22:37:16.554Z,2.77
2018-01-23T22:39:44.781Z,3.33
2018-01-23T22:42:14.403Z,2.30
2018-01-23T22:44:43.277Z,1.87
2018-01-23T22:47:12.847Z,2.47
2018-01-23T22:49:42.365Z,1.90
2018-01-23T22:52:10.842Z,1.70
2018-01-23T22:54:40.203Z,2.07
2018-01-23T22:57:09.230Z,2.13
2018-01-23T22:59:37.447Z,4.57
2018-01-23T23:02:05.685Z,2.10
2018-01-23T23:04:35.307Z,1.30
2018-01-23T23:07:03.811Z,2.60
2018-01-23T23:09:32.032Z,2.00
2018-01-23T23:12:01.048Z,1.90
2018-01-23T23:14:30.040Z,1.60
2018-01-23T23:16:58.264Z,1.60
2018-01-23T23:19:26.950Z,1.30
2018-01-23T23:21:55.186Z,1.90
2018-01-23T23:24:24.915Z,1.67
2018-01-23T23:26:54.543Z,2.40
2018-01-23T23:29:23.412Z,2.03
2018-01-23T23:31:51.658Z,1.63
2018-01-23T23:34:20.191Z,2.00
2018-01-23T23:36:48.824Z,1.47
2018-01-23T23:39:18.440Z,2.43
2018-01-23T23:41:47.344Z,1.53
2018-01-23T23:44:16.981Z,1.60
2018-01-23T23:46:45.508Z,1.53
2018-01-23T23:49:13.768Z,1.87
2018-01-23T23:51:41.987Z,1.90
2018-01-23T23:54:10.212Z,2.10
2018-01-23T23:56:38.483Z,2.73
2018-01-23T23:59:08.215Z,1.90
